createdAt,value
2022-10-04T00:02:15.568Z,101850.25
2022-10-04T00:04:57.930Z,101846.31
2022-10-04T00:07:30.130Z,101828.31
2022-10-04T00:10:13.845Z,101828.41
2022-10-04T00:13:07.005Z,101831.78
2022-10-04T00:15:37.461Z,101838.06
2022-10-04T00:18:16.558Z,101846.16
2022-10-04T00:20:53.349Z,101848.63
2022-10-04T00:23:23.392Z,101847.59
2022-10-04T00:25:59.744Z,101843.75
2022-10-04T00:28:26.773Z,101850.91
2022-10-04T00:31:24.730Z,101845.66
2022-10-04T00:34:18.966Z,101846.38
2022-10-04T00:36:51.580Z,101839.97
2022-10-04T00:39:39.152Z,101836.50
2022-10-04T00:42:44.205Z,101835.78
2022-10-04T00:45:28.593Z,101825.34
2022-10-04T00:48:01.341Z,101822.66
2022-10-04T00:50:47.919Z,101805.91
2022-10-04T00:53:50.272Z,101825.94
2022-10-04T00:56:41.308Z,101815.16
2022-10-04T00:59:25.551Z,101809.75
2022-10-04T01:02:15.465Z,101822.06
2022-10-04T01:05:02.658Z,101813.13
2022-10-04T01:07:34.506Z,101817.34
2022-10-04T01:10:26.698Z,101803.88
2022-10-04T01:13:21.372Z,101803.59
2022-10-04T01:16:07.517Z,101810.84
2022-10-04T01:18:36.678Z,101814.28
2022-10-04T01:21:27.201Z,101802.41
2022-10-04T01:24:00.014Z,101796.91
2022-10-04T01:26:26.915Z,101793.34
2022-10-04T01:29:17.447Z,101792.53
2022-10-04T01:32:01.063Z,101793.59
2022-10-04T01:34:30.242Z,101796.47
2022-10-04T01:37:00.420Z,101795.53
2022-10-04T01:39:28.975Z,101782.94
2022-10-04T01:42:21.065Z,101785.31
2022-10-04T01:45:07.171Z,101782.56
2022-10-04T01:47:44.994Z,101778.13
2022-10-04T01:50:20.524Z,101765.69
2022-10-04T01:53:27.473Z,101768.38
2022-10-04T01:56:14.979Z,101768.56
2022-10-04T01:58:53.962Z,101773.28
2022-10-04T02:01:31.164Z,101757.28
2022-10-04T02:04:16.255Z,101776.09
2022-10-04T02:06:54.089Z,101755.56
2022-10-04T02:09:33.934Z,101760.94
2022-10-04T02:12:01.816Z,101754.69
2022-10-04T02:14:35.326Z,101747.69
2022-10-04T02:17:09.085Z,101747.69
2022-10-04T02:19:42.301Z,101748.34
2022-10-04T02:22:11.388Z,101749.13
2022-10-04T02:24:45.405Z,101746.44
2022-10-04T02:27:13.128Z,101745.47
2022-10-04T02:29:40.095Z,101733.72
2022-10-04T02:32:27.251Z,101736.41
2022-10-04T02:34:56.073Z,101733.25
2022-10-04T02:37:28.782Z,101727.84
2022-10-04T02:40:19.745Z,101726.94
2022-10-04T02:43:06.992Z,101728.44
2022-10-04T02:45:51.780Z,101729.81
2022-10-04T02:48:33.671Z,101721.63
2022-10-04T02:51:14.709Z,101720.56
2022-10-04T02:54:10.376Z,101719.78
2022-10-04T02:56:38.125Z,101718.94
2022-10-04T02:59:06.994Z,101715.34
2022-10-04T03:01:52.684Z,101707.56
2022-10-04T03:04:24.652Z,101712.75
2022-10-04T03:06:53.513Z,101699.47
2022-10-04T03:09:28.822Z,101697.75
2022-10-04T03:11:57.256Z,101696.88
2022-10-04T03:14:27.165Z,101685.25
2022-10-04T03:16:57.695Z,101693.50
2022-10-04T03:19:27.153Z,101688.78
2022-10-04T03:21:58.390Z,101687.94
2022-10-04T03:24:31.205Z,101694.97
2022-10-04T03:27:02.849Z,101691.38
2022-10-04T03:29:33.319Z,101687.94
2022-10-04T03:32:04.367Z,101684.19
2022-10-04T03:34:38.812Z,101678.88
2022-10-04T03:37:15.086Z,101681.47
2022-10-04T03:39:46.422Z,101685.91
2022-10-04T03:42:20.905Z,101681.28
2022-10-04T03:44:51.288Z,101682.25
2022-10-04T03:47:26.546Z,101674.84
2022-10-04T03:49:55.429Z,101675.03
2022-10-04T03:52:28.556Z,101677.53
2022-10-04T03:55:02.579Z,101682.69
2022-10-04T03:57:30.381Z,101687.25
2022-10-04T03:59:58.426Z,101687.13
2022-10-04T04:02:46.268Z,101678.19
2022-10-04T04:05:29.576Z,101682.63
2022-10-04T04:08:26.940Z,101679.03
2022-10-04T04:10:58.678Z,101685.22
2022-10-04T04:13:42.372Z,101687.78
2022-10-04T04:16:10.066Z,101682.34
2022-10-04T04:18:41.018Z,101675.38
2022-10-04T04:21:08.444Z,101683.28
2022-10-04T04:23:44.274Z,101690.41
2022-10-04T04:26:46.605Z,101698.28
2022-10-04T04:29:32.807Z,101702.06
2022-10-04T04:32:25.266Z,101690.19
2022-10-04T04:34:57.794Z,101692.13
2022-10-04T04:37:25.194Z,101678.97
2022-10-04T04:39:55.360Z,101670.97
2022-10-04T04:42:35.974Z,101663.84
2022-10-04T04:45:25.659Z,101655.00
2022-10-04T04:47:56.076Z,101648.16
2022-10-04T04:50:37.255Z,101651.72
2022-10-04T04:53:15.941Z,101650.94
2022-10-04T04:56:03.299Z,101654.34
2022-10-04T04:58:41.462Z,101659.72
2022-10-04T05:01:33.488Z,101656.16
2022-10-04T05:04:04.007Z,101663.94
2022-10-04T05:06:33.207Z,101666.09
2022-10-04T05:09:00.373Z,101660.03
2022-10-04T05:11:32.253Z,101676.19
2022-10-04T05:14:10.233Z,101675.31
2022-10-04T05:16:54.212Z,101672.84
2022-10-04T05:19:31.146Z,101679.06
2022-10-04T05:22:01.408Z,101673.88
2022-10-04T05:24:37.624Z,101670.22
2022-10-04T05:27:16.669Z,101679.94
2022-10-04T05:30:16.313Z,101677.34
2022-10-04T05:33:00.204Z,101673.03
2022-10-04T05:35:29.614Z,101680.41
2022-10-04T05:38:27.706Z,101679.81
2022-10-04T05:41:42.577Z,101684.47
2022-10-04T05:44:35.640Z,101680.97
2022-10-04T05:47:07.598Z,101682.91
2022-10-04T05:49:44.147Z,101676.00
2022-10-04T05:52:33.607Z,101683.19
2022-10-04T05:55:12.984Z,101689.53
2022-10-04T05:58:06.212Z,101693.19
2022-10-04T06:00:45.542Z,101680.72
2022-10-04T06:03:15.818Z,101692.22
2022-10-04T06:06:04.130Z,101686.94
2022-10-04T06:09:12.522Z,101684.06
2022-10-04T06:12:13.580Z,101673.31
2022-10-04T06:15:50.141Z,101679.44
2022-10-04T06:18:44.565Z,101667.63
2022-10-04T06:21:32.021Z,101666.34
2022-10-04T06:24:18.288Z,101670.59
2022-10-04T06:26:54.752Z,101668.66
2022-10-04T06:29:28.709Z,101660.56
2022-10-04T06:32:36.715Z,101653.22
2022-10-04T06:35:17.669Z,101653.19
2022-10-04T06:37:50.682Z,101662.06
2022-10-04T06:40:32.824Z,101671.00
2022-10-04T06:43:32.639Z,101667.13
2022-10-04T06:46:10.618Z,101662.50
2022-10-04T06:49:07.268Z,101673.94
2022-10-04T06:52:08.973Z,101667.72
2022-10-04T06:55:30.283Z,101680.78
2022-10-04T06:58:36.034Z,101682.03
2022-10-04T07:01:23.904Z,101669.22
2022-10-04T07:04:41.142Z,101674.19
2022-10-04T07:07:37.636Z,101664.72
2022-10-04T07:10:32.108Z,101680.31
2022-10-04T07:13:16.374Z,101676.25
2022-10-04T07:16:02.203Z,101686.41
2022-10-04T07:18:43.844Z,101674.06
2022-10-04T07:21:15.809Z,101679.88
2022-10-04T07:23:56.520Z,101673.84
2022-10-04T07:26:41.906Z,101666.88
2022-10-04T07:29:30.305Z,101680.50
2022-10-04T07:32:06.275Z,101682.47
2022-10-04T07:34:44.957Z,101678.38
2022-10-04T07:37:13.838Z,101670.84
2022-10-04T07:39:45.742Z,101681.56
2022-10-04T07:42:32.796Z,101679.81
2022-10-04T07:45:06.029Z,101682.59
2022-10-04T07:47:33.329Z,101676.44
2022-10-04T07:50:00.296Z,101669.50
2022-10-04T07:53:09.514Z,101677.41
2022-10-04T07:55:48.854Z,101689.94
2022-10-04T07:58:45.904Z,101690.78
2022-10-04T08:01:42.660Z,101689.75
2022-10-04T08:04:48.000Z,101683.81
2022-10-04T08:07:27.241Z,101684.47
2022-10-04T08:10:27.037Z,101687.94
2022-10-04T08:13:12.361Z,101693.63
2022-10-04T08:15:44.560Z,101679.25
2022-10-04T08:18:17.314Z,101687.41
2022-10-04T08:21:05.679Z,101690.88
2022-10-04T08:24:37.362Z,101678.22
2022-10-04T08:28:04.514Z,101681.72
2022-10-04T08:31:13.348Z,101667.88
2022-10-04T08:34:25.957Z,101666.38
2022-10-04T08:37:11.808Z,101665.25
2022-10-04T08:40:33.235Z,101654.34
2022-10-04T08:43:49.509Z,101661.31
2022-10-04T08:46:47.289Z,101654.91
2022-10-04T08:50:09.868Z,101653.19
2022-10-04T08:53:06.333Z,101652.75
2022-10-04T08:55:38.837Z,101654.06
2022-10-04T08:58:16.012Z,101645.97
2022-10-04T09:01:11.295Z,101639.44
2022-10-04T09:04:01.738Z,101644.09
2022-10-04T09:07:12.712Z,101638.44
2022-10-04T09:10:13.718Z,101653.00
2022-10-04T09:13:13.246Z,101646.75
2022-10-04T09:16:03.221Z,101636.28
2022-10-04T09:18:54.845Z,101636.78
2022-10-04T09:21:58.782Z,101629.53
2022-10-04T09:24:34.914Z,101637.44
2022-10-04T09:27:54.031Z,101629.88
2022-10-04T09:30:25.156Z,101631.44
2022-10-04T09:33:39.496Z,101623.41
2022-10-04T09:36:51.267Z,101622.94
2022-10-04T09:39:30.444Z,101614.50
2022-10-04T09:42:26.596Z,101614.03
2022-10-04T09:45:21.587Z,101604.59
2022-10-04T09:48:08.421Z,101597.91
2022-10-04T09:50:56.377Z,101593.75
2022-10-04T09:53:54.622Z,101599.47
2022-10-04T09:56:40.189Z,101597.69
2022-10-04T09:59:53.874Z,101600.09
2022-10-04T10:02:42.299Z,101596.66
2022-10-04T10:05:58.204Z,101584.16
2022-10-04T10:08:39.770Z,101595.47
2022-10-04T10:12:05.073Z,101595.59
2022-10-04T10:14:31.930Z,101592.38
2022-10-04T10:17:10.455Z,101588.34
2022-10-04T10:19:56.998Z,101588.91
2022-10-04T10:22:58.844Z,101584.19
2022-10-04T10:26:08.717Z,101588.97
2022-10-04T10:29:27.154Z,101581.41
2022-10-04T10:32:15.719Z,101594.44
2022-10-04T10:35:32.838Z,101593.91
2022-10-04T10:38:24.374Z,101588.13
2022-10-04T10:41:32.168Z,101588.56
2022-10-04T10:44:26.582Z,101589.28
2022-10-04T10:47:11.131Z,101577.84
2022-10-04T10:50:07.345Z,101579.13
2022-10-04T10:52:45.913Z,101582.94
2022-10-04T10:56:08.520Z,101580.97
2022-10-04T10:59:09.341Z,101580.91
2022-10-04T11:01:59.905Z,101574.66
2022-10-04T11:04:59.325Z,101572.75
2022-10-04T11:07:50.254Z,101561.66
2022-10-04T11:11:03.360Z,101567.88
2022-10-04T11:14:28.318Z,101555.13
2022-10-04T11:17:05.262Z,101562.28
2022-10-04T11:20:13.254Z,101562.38
2022-10-04T11:23:04.775Z,101551.25
2022-10-04T11:25:57.542Z,101550.25
2022-10-04T11:29:12.217Z,101553.28
2022-10-04T11:32:00.470Z,101547.63
2022-10-04T11:34:57.918Z,101551.00
2022-10-04T11:37:47.365Z,101541.34
2022-10-04T11:40:43.114Z,101543.53
2022-10-04T11:43:35.942Z,101526.66
2022-10-04T11:46:33.594Z,101529.03
2022-10-04T11:50:00.881Z,101521.44
2022-10-04T11:53:34.210Z,101516.19
2022-10-04T11:56:17.000Z,101510.06
2022-10-04T11:59:18.300Z,101509.75
2022-10-04T12:02:16.386Z,101494.97
2022-10-04T12:04:56.297Z,101488.81
2022-10-04T12:07:44.816Z,101500.94
2022-10-04T12:10:36.499Z,101500.78
2022-10-04T12:13:46.436Z,101497.72
2022-10-04T12:17:09.021Z,101499.66
2022-10-04T12:19:57.862Z,101476.66
2022-10-04T12:22:34.309Z,101486.56
2022-10-04T12:25:38.931Z,101473.38
2022-10-04T12:28:31.948Z,101478.00
2022-10-04T12:31:44.543Z,101471.50
2022-10-04T12:34:14.792Z,101466.38
2022-10-04T12:37:19.632Z,101453.13
2022-10-04T12:40:09.353Z,101455.78
2022-10-04T12:42:53.071Z,101457.84
2022-10-04T12:45:53.213Z,101451.63
2022-10-04T12:48:40.830Z,101445.94
2022-10-04T12:51:48.085Z,101456.81
2022-10-04T12:54:43.310Z,101448.53
2022-10-04T12:58:01.896Z,101444.34
2022-10-04T13:00:36.586Z,101436.50
2022-10-04T13:03:33.306Z,101429.72
2022-10-04T13:06:23.023Z,101432.88
2022-10-04T13:09:25.968Z,101439.78
2022-10-04T13:12:27.832Z,101424.38
2022-10-04T13:17:20.724Z,101430.03
2022-10-04T13:18:49.369Z,101417.88
2022-10-04T13:21:25.751Z,101428.22
2022-10-04T13:24:23.456Z,101427.16
2022-10-04T13:27:03.209Z,101403.06
2022-10-04T13:29:47.597Z,101413.53
2022-10-04T13:32:27.169Z,101412.13
2022-10-04T13:35:26.225Z,101404.72
2022-10-04T13:38:20.649Z,101404.44
2022-10-04T13:41:25.593Z,101397.22
2022-10-04T13:44:20.882Z,101389.78
2022-10-04T13:47:23.901Z,101386.97
2022-10-04T13:50:04.021Z,101374.28
2022-10-04T13:53:29.098Z,101383.00
2022-10-04T13:56:20.864Z,101374.47
2022-10-04T13:58:59.045Z,101368.19
2022-10-04T14:02:15.648Z,101363.38
2022-10-04T14:05:18.878Z,101371.63
2022-10-04T14:08:25.591Z,101359.59
2022-10-04T14:11:07.711Z,101365.59
2022-10-04T14:14:01.665Z,101354.72
2022-10-04T14:16:46.579Z,101366.06
2022-10-04T14:19:50.591Z,101364.06
2022-10-04T14:22:45.108Z,101361.97
2022-10-04T14:25:42.441Z,101362.56
2022-10-04T14:28:32.968Z,101362.16
2022-10-04T14:31:43.391Z,101368.88
2022-10-04T14:34:34.238Z,101358.50
2022-10-04T14:37:50.988Z,101363.66
2022-10-04T14:40:44.121Z,101359.47
2022-10-04T14:43:42.531Z,101364.50
2022-10-04T14:46:55.149Z,101370.97
2022-10-04T14:50:26.130Z,101368.78
2022-10-04T14:52:59.209Z,101370.34
2022-10-04T14:55:44.661Z,101363.34
2022-10-04T14:59:00.793Z,101355.47
2022-10-04T15:01:29.043Z,101342.94
2022-10-04T15:04:17.903Z,101333.38
2022-10-04T15:06:50.665Z,101326.28
2022-10-04T15:09:57.746Z,101332.63
2022-10-04T15:13:10.318Z,101333.84
2022-10-04T15:15:59.363Z,101336.72
2022-10-04T15:18:56.087Z,101339.69
2022-10-04T15:21:47.924Z,101340.22
2022-10-04T15:24:27.900Z,101337.47
2022-10-04T15:27:28.843Z,101333.41
2022-10-04T15:30:19.364Z,101345.34
2022-10-04T15:33:17.269Z,101353.69
2022-10-04T15:35:58.753Z,101356.63
2022-10-04T15:38:33.730Z,101358.00
2022-10-04T15:41:18.149Z,101345.34
2022-10-04T15:44:11.679Z,101342.47
2022-10-04T15:46:48.602Z,101337.50
2022-10-04T15:49:56.045Z,101350.88
2022-10-04T15:52:57.981Z,101354.94
2022-10-04T15:55:37.833Z,101340.72
2022-10-04T15:58:41.589Z,101327.31
2022-10-04T16:02:07.758Z,101339.28
2022-10-04T16:04:51.080Z,101333.06
2022-10-04T16:07:35.855Z,101336.75
2022-10-04T16:10:19.451Z,101334.31
2022-10-04T16:13:26.331Z,101342.69
2022-10-04T16:16:16.641Z,101339.06
2022-10-04T16:19:30.247Z,101338.94
2022-10-04T16:22:15.869Z,101336.69
2022-10-04T16:24:57.631Z,101340.09
2022-10-04T16:27:56.462Z,101338.97
2022-10-04T16:30:29.048Z,101338.72
2022-10-04T16:32:59.109Z,101331.81
2022-10-04T16:36:16.937Z,101331.66
2022-10-04T16:39:06.320Z,101329.81
2022-10-04T16:42:05.374Z,101334.47
2022-10-04T16:44:55.816Z,101322.72
2022-10-04T16:47:38.182Z,101324.41
2022-10-04T16:50:11.799Z,101321.66
2022-10-04T16:52:50.436Z,101324.22
2022-10-04T16:55:44.784Z,101323.31
2022-10-04T16:58:28.547Z,101322.84
2022-10-04T17:01:23.249Z,101315.56
2022-10-04T17:04:02.621Z,101320.03
2022-10-04T17:07:00.485Z,101319.66
2022-10-04T17:09:33.060Z,101315.50
2022-10-04T17:13:07.035Z,101316.13
2022-10-04T17:15:38.299Z,101311.59
2022-10-04T17:18:46.483Z,101313.63
2022-10-04T17:21:55.220Z,101314.53
2022-10-04T17:25:18.906Z,101311.69
2022-10-04T17:27:50.405Z,101318.69
2022-10-04T17:30:23.924Z,101313.28
2022-10-04T17:33:27.371Z,101321.16
2022-10-04T17:36:10.506Z,101316.72
2022-10-04T17:39:26.398Z,101330.19
2022-10-04T17:42:32.296Z,101333.31
2022-10-04T17:45:31.501Z,101334.31
2022-10-04T17:48:40.809Z,101334.72
2022-10-04T17:51:39.062Z,101334.84
2022-10-04T17:54:48.939Z,101329.25
2022-10-04T17:57:30.876Z,101324.13
2022-10-04T18:00:10.077Z,101326.53
2022-10-04T18:03:01.667Z,101337.00
2022-10-04T18:05:59.196Z,101337.94
2022-10-04T18:08:52.080Z,101325.22
2022-10-04T18:11:41.636Z,101329.19
2022-10-04T18:14:30.406Z,101340.31
2022-10-04T18:17:21.191Z,101341.34
2022-10-04T18:19:50.993Z,101339.63
2022-10-04T18:22:20.128Z,101339.75
2022-10-04T18:25:03.960Z,101334.59
2022-10-04T18:27:31.993Z,101344.16
2022-10-04T18:30:01.644Z,101351.16
2022-10-04T18:32:28.449Z,101355.88
2022-10-04T18:34:58.126Z,101355.59
2022-10-04T18:37:39.218Z,101344.75
2022-10-04T18:40:19.849Z,101351.00
2022-10-04T18:42:58.563Z,101352.81
2022-10-04T18:45:33.860Z,101338.78
2022-10-04T18:48:14.622Z,101344.94
2022-10-04T18:50:47.118Z,101343.97
2022-10-04T18:53:40.366Z,101335.25
2022-10-04T18:56:12.326Z,101335.25
2022-10-04T18:59:25.727Z,101333.50
2022-10-04T19:02:35.252Z,101339.72
2022-10-04T19:05:17.351Z,101348.94
2022-10-04T19:07:59.300Z,101343.66
2022-10-04T19:10:51.805Z,101351.72
2022-10-04T19:13:39.066Z,101353.91
2022-10-04T19:16:27.722Z,101355.84
2022-10-04T19:19:27.130Z,101371.38
2022-10-04T19:22:26.640Z,101361.31
2022-10-04T19:25:15.701Z,101361.69
2022-10-04T19:28:03.594Z,101367.91
2022-10-04T19:31:05.674Z,101376.41
2022-10-04T19:33:57.866Z,101366.09
2022-10-04T19:37:05.495Z,101353.16
2022-10-04T19:40:05.320Z,101352.69
2022-10-04T19:42:42.647Z,101340.16
2022-10-04T19:45:43.022Z,101335.13
2022-10-04T19:48:24.167Z,101344.63
2022-10-04T19:51:19.506Z,101350.44
2022-10-04T19:53:49.663Z,101337.66
2022-10-04T19:56:24.376Z,101337.88
2022-10-04T19:59:10.410Z,101341.47
2022-10-04T20:01:38.841Z,101335.44
2022-10-04T20:04:34.065Z,101332.84
2022-10-04T20:07:23.816Z,101338.25
2022-10-04T20:09:56.414Z,101336.81
2022-10-04T20:12:37.643Z,101338.16
2022-10-04T20:15:27.873Z,101340.41
2022-10-04T20:17:56.517Z,101343.88
2022-10-04T20:21:00.021Z,101352.22
2022-10-04T20:23:39.171Z,101360.13
2022-10-04T20:26:42.291Z,101356.06
2022-10-04T20:29:09.412Z,101357.41
2022-10-04T20:31:54.965Z,101358.78
2022-10-04T20:34:49.126Z,101349.44
2022-10-04T20:37:19.067Z,101359.72
2022-10-04T20:39:45.910Z,101342.84
2022-10-04T20:42:36.973Z,101341.63
2022-10-04T20:45:09.467Z,101332.16
2022-10-04T20:47:46.585Z,101319.13
2022-10-04T20:50:34.723Z,101306.06
2022-10-04T20:53:07.244Z,101313.56
2022-10-04T20:55:38.876Z,101307.44
2022-10-04T20:58:32.636Z,101307.28
2022-10-04T21:01:16.693Z,101310.13
2022-10-04T21:03:44.222Z,101303.22
2022-10-04T21:06:12.133Z,101289.72
2022-10-04T21:08:41.000Z,101299.16
2022-10-04T21:11:20.668Z,101297.78
2022-10-04T21:13:57.309Z,101296.53
2022-10-04T21:16:48.691Z,101301.19
2022-10-04T21:19:38.675Z,101290.38
2022-10-04T21:22:15.858Z,101300.22
2022-10-04T21:24:49.951Z,101301.94
2022-10-04T21:27:46.392Z,101297.53
2022-10-04T21:30:16.551Z,101306.25
2022-10-04T21:32:43.905Z,101305.41
2022-10-04T21:35:12.354Z,101310.81
2022-10-04T21:37:39.695Z,101308.09
2022-10-04T21:40:08.093Z,101305.50
2022-10-04T21:42:35.045Z,101310.91
2022-10-04T21:45:02.047Z,101312.16
2022-10-04T21:47:29.119Z,101313.13
2022-10-04T21:49:56.081Z,101308.69
2022-10-04T21:52:23.073Z,101316.94
2022-10-04T21:54:49.982Z,101313.25
2022-10-04T21:57:17.136Z,101301.44
2022-10-04T21:59:44.007Z,101313.00
2022-10-04T22:02:10.956Z,101307.50
2022-10-04T22:04:38.401Z,101304.78
2022-10-04T22:07:05.387Z,101311.88
2022-10-04T22:09:33.872Z,101320.13
2022-10-04T22:12:00.794Z,101315.59
2022-10-04T22:14:27.734Z,101324.19
2022-10-04T22:16:54.676Z,101328.28
2022-10-04T22:19:22.024Z,101325.66
2022-10-04T22:21:48.908Z,101335.91
2022-10-04T22:24:20.226Z,101328.91
2022-10-04T22:26:48.218Z,101335.16
2022-10-04T22:29:17.637Z,101335.16
2022-10-04T22:31:51.033Z,101329.88
2022-10-04T22:34:21.174Z,101317.09
2022-10-04T22:36:52.012Z,101322.88
2022-10-04T22:39:20.594Z,101314.00
2022-10-04T22:42:00.653Z,101310.06
2022-10-04T22:44:36.369Z,101322.81
2022-10-04T22:47:10.506Z,101311.41
2022-10-04T22:49:42.878Z,101307.94
2022-10-04T22:52:22.598Z,101307.56
2022-10-04T22:54:52.475Z,101309.75
2022-10-04T22:57:20.090Z,101312.72
2022-10-04T22:59:52.524Z,101312.94
2022-10-04T23:02:29.807Z,101313.28
2022-10-04T23:05:02.398Z,101302.94
2022-10-04T23:07:29.394Z,101309.97
2022-10-04T23:09:56.262Z,101308.22
2022-10-04T23:12:23.289Z,101307.25
2022-10-04T23:14:50.172Z,101306.50
2022-10-04T23:17:29.680Z,101306.28
2022-10-04T23:20:01.308Z,101296.66
2022-10-04T23:22:30.790Z,101306.28
2022-10-04T23:24:58.099Z,101295.47
2022-10-04T23:27:25.028Z,101288.13
2022-10-04T23:30:04.695Z,101294.72
2022-10-04T23:32:32.538Z,101284.88
2022-10-04T23:35:01.711Z,101290.28
2022-10-04T23:37:32.493Z,101298.41
2022-10-04T23:39:59.504Z,101298.41
2022-10-04T23:42:30.209Z,101287.47
2022-10-04T23:44:59.929Z,101292.88
2022-10-04T23:47:35.090Z,101304.56
2022-10-04T23:50:07.849Z,101293.75
2022-10-04T23:52:40.192Z,101285.75
2022-10-04T23:55:18.343Z,101282.94
2022-10-04T23:57:46.374Z,101291.88
